createdAt,value
2018-10-17T00:03:14.093Z,24.20
2018-10-17T00:07:18.351Z,24.83
2018-10-17T00:11:22.558Z,29.12
2018-10-17T00:15:26.868Z,27.80
2018-10-17T00:19:31.096Z,21.60
2018-10-17T00:23:36.288Z,23.63
2018-10-17T00:27:40.410Z,21.20
2018-10-17T00:31:45.379Z,22.50
2018-10-17T00:35:49.438Z,23.17
2018-10-17T00:39:53.982Z,21.02
2018-10-17T00:43:58.462Z,24.07
2018-10-17T00:48:02.699Z,21.87
2018-10-17T00:52:06.787Z,24.18
2018-10-17T00:56:10.900Z,25.60
2018-10-17T01:00:15.077Z,24.63
2018-10-17T01:04:19.100Z,29.23
2018-10-17T01:08:23.574Z,22.23
2018-10-17T01:12:27.621Z,24.40
2018-10-17T01:16:31.701Z,24.37
2018-10-17T01:20:36.227Z,25.87
2018-10-17T01:24:40.220Z,22.63
2018-10-17T01:28:44.696Z,24.30
2018-10-17T01:32:48.804Z,23.70
2018-10-17T01:36:52.951Z,23.25
2018-10-17T01:40:57.071Z,24.63
2018-10-17T01:45:01.123Z,23.77
2018-10-17T01:49:05.471Z,22.30
2018-10-17T01:53:09.567Z,23.55
2018-10-17T01:57:14.009Z,23.33
2018-10-17T02:01:18.064Z,23.57
2018-10-17T02:05:22.199Z,22.83
2018-10-17T02:09:27.063Z,30.73
2018-10-17T02:13:31.449Z,26.00
2018-10-17T02:17:35.653Z,27.10
2018-10-17T02:21:40.008Z,25.97
2018-10-17T02:25:44.259Z,20.83
2018-10-17T02:29:48.265Z,24.75
2018-10-17T02:33:52.455Z,29.73
2018-10-17T02:37:56.799Z,26.20
2018-10-17T02:42:01.101Z,30.07
2018-10-17T02:46:05.461Z,25.72
2018-10-17T02:50:11.514Z,27.43
2018-10-17T02:54:15.583Z,25.60
2018-10-17T02:58:19.762Z,24.37
2018-10-17T03:02:23.956Z,24.77
2018-10-17T03:06:27.989Z,25.57
2018-10-17T03:10:32.291Z,23.23
2018-10-17T03:14:36.290Z,27.65
2018-10-17T03:18:40.392Z,24.20
2018-10-17T03:22:45.491Z,22.65
2018-10-17T03:26:49.557Z,22.83
2018-10-17T03:30:53.729Z,28.05
2018-10-17T03:34:57.724Z,24.90
2018-10-17T03:39:02.020Z,24.35
2018-10-17T03:43:06.123Z,24.57
2018-10-17T03:47:10.491Z,25.12
2018-10-17T03:51:14.940Z,22.30
2018-10-17T03:55:19.054Z,24.43
2018-10-17T03:59:23.073Z,30.23
2018-10-17T04:03:27.034Z,30.90
2018-10-17T04:07:31.093Z,24.95
2018-10-17T04:11:35.455Z,24.40
2018-10-17T04:15:39.495Z,24.57
2018-10-17T04:19:44.087Z,23.33
2018-10-17T04:23:48.108Z,24.43
2018-10-17T04:27:54.407Z,20.37
2018-10-17T04:31:58.626Z,23.07
2018-10-17T04:36:02.775Z,28.25
2018-10-17T04:40:06.735Z,25.90
2018-10-17T04:44:11.732Z,26.07
2018-10-17T04:48:17.245Z,25.70
2018-10-17T04:52:21.302Z,26.77
2018-10-17T04:56:25.698Z,25.62
2018-10-17T05:00:29.806Z,22.70
2018-10-17T05:04:33.944Z,24.00
2018-10-17T05:08:38.776Z,21.27
2018-10-17T05:12:43.485Z,22.03
2018-10-17T05:16:47.522Z,29.13
2018-10-17T05:20:51.549Z,25.37
2018-10-17T05:24:55.681Z,27.30
2018-10-17T05:28:59.986Z,25.55
2018-10-17T05:33:04.098Z,24.50
2018-10-17T05:37:08.148Z,33.70
2018-10-17T05:41:12.304Z,31.53
2018-10-17T05:45:16.392Z,26.60
2018-10-17T05:49:20.447Z,26.07
2018-10-17T05:53:24.741Z,28.15
2018-10-17T05:57:28.833Z,27.37
2018-10-17T06:01:33.115Z,24.20
2018-10-17T06:05:37.220Z,27.23
2018-10-17T06:09:41.193Z,25.35
2018-10-17T06:13:45.338Z,27.73
2018-10-17T06:17:50.934Z,28.90
2018-10-17T06:21:54.872Z,29.50
2018-10-17T06:25:58.927Z,28.93
2018-10-17T06:30:02.915Z,30.87
2018-10-17T06:34:07.179Z,27.03
2018-10-17T06:38:11.045Z,32.50
2018-10-17T06:42:15.377Z,31.70
2018-10-17T06:46:19.549Z,38.37
2018-10-17T06:50:23.561Z,30.62
2018-10-17T06:54:28.050Z,32.53
2018-10-17T06:58:32.001Z,31.67
2018-10-17T07:02:36.017Z,31.17
2018-10-17T07:06:39.988Z,32.77
2018-10-17T07:10:44.390Z,33.63
2018-10-17T07:14:48.402Z,31.43
2018-10-17T07:18:53.434Z,32.87
2018-10-17T07:22:57.494Z,35.50
2018-10-17T07:27:01.796Z,34.57
2018-10-17T07:31:06.027Z,32.93
2018-10-17T07:35:10.714Z,39.60
2018-10-17T07:39:14.890Z,38.33
2018-10-17T07:43:18.881Z,37.28
2018-10-17T07:47:23.408Z,36.13
2018-10-17T07:51:27.613Z,35.87
2018-10-17T07:55:31.802Z,38.13
2018-10-17T07:59:35.917Z,33.83
2018-10-17T08:03:39.917Z,34.73
2018-10-17T08:07:44.118Z,36.73
2018-10-17T08:11:48.546Z,40.00
2018-10-17T08:15:53.972Z,40.03
2018-10-17T08:19:57.989Z,38.75
2018-10-17T08:24:02.635Z,41.73
2018-10-17T08:28:06.678Z,40.83
2018-10-17T08:32:11.064Z,41.50
2018-10-17T08:36:15.475Z,42.20
2018-10-17T08:40:19.323Z,41.50
2018-10-17T08:44:24.149Z,39.17
2018-10-17T08:48:28.106Z,40.13
2018-10-17T08:52:32.222Z,41.40
2018-10-17T08:56:36.323Z,41.87
2018-10-17T09:00:40.348Z,38.33
2018-10-17T09:04:44.459Z,44.90
2018-10-17T09:08:48.509Z,40.43
2018-10-17T09:12:52.509Z,37.57
2018-10-17T09:16:56.689Z,33.80
2018-10-17T09:21:01.762Z,34.87
2018-10-17T09:25:05.428Z,33.60
2018-10-17T09:29:09.640Z,28.63
2018-10-17T09:33:13.788Z,26.47
2018-10-17T09:37:17.801Z,29.27
2018-10-17T09:41:22.052Z,24.37
2018-10-17T09:45:26.169Z,25.30
2018-10-17T09:49:30.145Z,26.30
2018-10-17T09:53:34.480Z,23.57
2018-10-17T09:57:38.612Z,22.83
2018-10-17T10:01:46.695Z,20.30
2018-10-17T10:05:50.722Z,20.30
2018-10-17T10:09:55.050Z,19.43
2018-10-17T10:13:59.219Z,19.90
2018-10-17T10:18:03.266Z,19.60
2018-10-17T10:22:07.422Z,21.50
2018-10-17T10:26:12.006Z,19.52
2018-10-17T10:30:16.602Z,19.13
2018-10-17T10:34:20.843Z,18.90
2018-10-17T10:38:24.885Z,17.30
2018-10-17T10:42:29.360Z,17.47
2018-10-17T10:46:33.306Z,17.77
2018-10-17T10:50:38.495Z,18.80
2018-10-17T10:54:42.476Z,17.20
2018-10-17T10:58:47.275Z,20.67
2018-10-17T11:02:51.225Z,16.33
2018-10-17T11:06:55.216Z,16.70
2018-10-17T11:10:59.309Z,17.40
2018-10-17T11:15:03.831Z,16.77
2018-10-17T11:19:08.867Z,18.23
2018-10-17T11:23:13.521Z,16.13
2018-10-17T11:27:17.634Z,17.40
2018-10-17T11:31:21.666Z,17.53
2018-10-17T11:35:26.242Z,16.57
2018-10-17T11:39:30.301Z,17.48
2018-10-17T11:43:34.456Z,18.40
2018-10-17T11:47:39.465Z,17.77
2018-10-17T11:51:43.526Z,16.73
2018-10-17T11:55:47.626Z,16.73
2018-10-17T11:59:52.033Z,16.37
2018-10-17T12:03:56.432Z,18.37
2018-10-17T12:08:00.220Z,16.33
2018-10-17T12:12:05.518Z,17.73
2018-10-17T12:16:10.067Z,14.65
2018-10-17T12:20:15.025Z,18.27
2018-10-17T12:24:19.001Z,15.37
2018-10-17T12:28:23.374Z,16.53
2018-10-17T12:32:27.320Z,15.87
2018-10-17T12:36:31.428Z,16.60
2018-10-17T12:40:35.743Z,15.65
2018-10-17T12:44:39.537Z,16.93
2018-10-17T12:48:43.711Z,17.92
2018-10-17T12:52:48.216Z,18.62
2018-10-17T12:56:52.181Z,16.85
2018-10-17T13:00:56.567Z,17.20
2018-10-17T13:05:00.528Z,20.20
2018-10-17T13:09:08.778Z,17.80
2018-10-17T13:13:12.823Z,15.72
2018-10-17T13:17:17.321Z,18.90
2018-10-17T13:21:21.540Z,18.85
2018-10-17T13:25:26.362Z,17.17
2018-10-17T13:29:30.415Z,17.70
2018-10-17T13:33:34.469Z,15.85
2018-10-17T13:37:38.498Z,16.57
2018-10-17T13:41:42.655Z,16.62
2018-10-17T13:45:46.708Z,15.48
2018-10-17T13:49:51.730Z,14.87
2018-10-17T13:53:55.715Z,13.93
2018-10-17T13:57:59.787Z,15.03
2018-10-17T14:02:04.833Z,13.05
2018-10-17T14:06:09.021Z,13.13
2018-10-17T14:10:13.626Z,10.15
2018-10-17T14:14:17.776Z,8.70
2018-10-17T14:18:22.120Z,9.60
2018-10-17T14:22:26.064Z,10.72
2018-10-17T14:26:30.095Z,10.68
2018-10-17T14:30:34.234Z,15.88
2018-10-17T14:34:38.275Z,14.63
2018-10-17T14:38:42.327Z,12.47
2018-10-17T14:42:46.301Z,12.57
2018-10-17T14:46:50.709Z,12.88
2018-10-17T14:50:55.494Z,13.23
2018-10-17T14:54:59.717Z,12.60
2018-10-17T14:59:03.781Z,10.20
2018-10-17T15:03:07.785Z,12.77
2018-10-17T15:07:12.045Z,9.75
2018-10-17T15:11:16.387Z,9.60
2018-10-17T15:15:20.560Z,10.40
2018-10-17T15:19:25.270Z,11.75
2018-10-17T15:23:29.320Z,8.47
2018-10-17T15:27:33.305Z,9.00
2018-10-17T15:31:37.368Z,8.15
2018-10-17T15:35:41.637Z,8.18
2018-10-17T15:39:45.820Z,9.70
2018-10-17T15:43:50.605Z,9.07
2018-10-17T15:47:55.334Z,13.07
2018-10-17T15:51:59.500Z,9.53
2018-10-17T15:56:04.124Z,9.47
2018-10-17T16:00:09.950Z,9.37
2018-10-17T16:04:14.816Z,8.18
2018-10-17T16:08:18.891Z,8.90
2018-10-17T16:12:23.072Z,11.77
2018-10-17T16:16:27.062Z,13.43
2018-10-17T16:20:31.138Z,8.15
2018-10-17T16:24:35.860Z,7.72
2018-10-17T16:28:39.934Z,11.73
2018-10-17T16:32:45.027Z,9.55
2018-10-17T16:36:49.040Z,9.30
2018-10-17T16:40:53.090Z,8.58
2018-10-17T16:44:57.404Z,11.35
2018-10-17T16:49:02.606Z,11.87
2018-10-17T16:53:06.695Z,13.33
2018-10-17T16:57:11.255Z,8.93
2018-10-17T17:01:15.560Z,10.37
2018-10-17T17:05:19.537Z,10.40
2018-10-17T17:09:24.744Z,11.77
2018-10-17T17:13:28.753Z,15.17
2018-10-17T17:17:32.975Z,12.28
2018-10-17T17:21:38.029Z,9.85
2018-10-17T17:25:42.688Z,11.33
2018-10-17T17:29:46.919Z,10.28
2018-10-17T17:33:50.778Z,9.55
2018-10-17T17:37:55.448Z,7.33
2018-10-17T17:41:59.448Z,10.37
2018-10-17T17:46:03.734Z,8.18
2018-10-17T17:50:08.316Z,7.90
2018-10-17T17:54:12.309Z,10.40
2018-10-17T17:58:16.946Z,8.95
2018-10-17T18:02:21.112Z,9.00
2018-10-17T18:06:25.315Z,6.43
2018-10-17T18:10:29.241Z,7.03
2018-10-17T18:14:33.267Z,5.55
2018-10-17T18:18:37.367Z,9.63
2018-10-17T18:22:41.773Z,6.73
2018-10-17T18:26:45.971Z,6.75
2018-10-17T18:30:50.292Z,8.33
2018-10-17T18:35:01.331Z,9.18
2018-10-17T18:39:07.213Z,7.37
2018-10-17T18:43:11.277Z,9.83
2018-10-17T18:47:15.392Z,9.80
2018-10-17T18:51:19.465Z,9.10
2018-10-17T18:55:23.436Z,7.87
2018-10-17T18:59:27.531Z,7.07
2018-10-17T19:03:31.668Z,11.57
2018-10-17T19:07:35.733Z,7.63
2018-10-17T19:11:40.610Z,7.47
2018-10-17T19:15:44.631Z,8.27
2018-10-17T19:19:48.766Z,9.97
2018-10-17T19:23:52.803Z,8.67
2018-10-17T19:27:57.024Z,7.97
2018-10-17T19:32:01.149Z,7.47
2018-10-17T19:36:05.808Z,6.60
2018-10-17T19:40:10.409Z,10.93
2018-10-17T19:44:14.489Z,8.53
2018-10-17T19:48:18.501Z,8.17
2018-10-17T19:52:22.604Z,7.37
2018-10-17T19:56:26.662Z,8.70
2018-10-17T20:00:30.884Z,7.73
2018-10-17T20:04:34.902Z,7.93
2018-10-17T20:08:39.210Z,12.87
2018-10-17T20:12:43.195Z,9.43
2018-10-17T20:16:47.251Z,7.67
2018-10-17T20:20:51.261Z,7.63
2018-10-17T20:24:55.470Z,10.47
2018-10-17T20:28:59.586Z,11.28
2018-10-17T20:33:03.638Z,8.50
2018-10-17T20:37:07.605Z,9.63
2018-10-17T20:41:11.980Z,11.80
2018-10-17T20:45:15.976Z,12.30
2018-10-17T20:49:20.333Z,9.93
2018-10-17T20:53:24.599Z,12.17
2018-10-17T20:57:28.742Z,8.80
2018-10-17T21:01:32.665Z,10.60
2018-10-17T21:05:37.147Z,9.60
2018-10-17T21:09:41.096Z,12.37
2018-10-17T21:13:45.324Z,8.23
2018-10-17T21:17:49.565Z,10.17
2018-10-17T21:21:53.712Z,7.43
2018-10-17T21:25:57.771Z,9.43
2018-10-17T21:30:02.831Z,13.20
2018-10-17T21:34:06.788Z,10.08
2018-10-17T21:38:10.910Z,13.22
2018-10-17T21:42:14.993Z,8.18
2018-10-17T21:46:18.974Z,10.82
2018-10-17T21:50:23.012Z,9.63
2018-10-17T21:54:27.079Z,8.93
2018-10-17T21:58:31.127Z,8.63
2018-10-17T22:02:35.194Z,9.80
2018-10-17T22:06:39.291Z,12.53
2018-10-17T22:10:43.970Z,9.60
2018-10-17T22:14:47.883Z,8.33
2018-10-17T22:18:51.951Z,8.90
2018-10-17T22:22:56.002Z,8.53
2018-10-17T22:27:00.242Z,11.08
2018-10-17T22:31:05.419Z,11.08
2018-10-17T22:35:09.434Z,9.30
2018-10-17T22:39:14.883Z,9.50
2018-10-17T22:43:18.878Z,10.48
2018-10-17T22:47:22.868Z,10.90
2018-10-17T22:51:27.029Z,8.80
2018-10-17T22:55:31.020Z,7.20
2018-10-17T22:59:35.024Z,8.47
2018-10-17T23:03:39.676Z,12.23
2018-10-17T23:07:43.696Z,10.93
2018-10-17T23:11:48.336Z,8.67
2018-10-17T23:15:52.400Z,7.50
2018-10-17T23:19:56.612Z,8.90
2018-10-17T23:24:00.604Z,9.87
2018-10-17T23:28:05.305Z,9.83
2018-10-17T23:32:09.798Z,9.97
2018-10-17T23:36:13.886Z,8.85
2018-10-17T23:40:17.974Z,10.37
2018-10-17T23:44:22.005Z,9.25
2018-10-17T23:48:26.069Z,7.87
2018-10-17T23:52:31.518Z,7.13
2018-10-17T23:56:36.424Z,8.83
